sensor_id;sensor_type;location;lat;lon;timestamp;P1;durP1;ratioP1;P2;durP2;ratioP2
31676;SDS011;18385;51.572;6.578;2024-01-27T00:02:20;11.63;;;2.83;;
31676;SDS011;18385;51.572;6.578;2024-01-27T00:04:45;9.43;;;1.67;;
31676;SDS011;18385;51.572;6.578;2024-01-27T00:07:11;9.10;;;2.05;;
31676;SDS011;18385;51.572;6.578;2024-01-27T00:09:37;14.05;;;1.52;;
31676;SDS011;18385;51.572;6.578;2024-01-27T00:12:03;9.65;;;1.50;;
31676;SDS011;18385;51.572;6.578;2024-01-27T00:14:28;7.97;;;2.03;;
31676;SDS011;18385;51.572;6.578;2024-01-27T00:16:54;16.20;;;3.50;;
31676;SDS011;18385;51.572;6.578;2024-01-27T00:19:20;9.65;;;1.50;;
31676;SDS011;18385;51.572;6.578;2024-01-27T00:21:45;12.98;;;1.67;;
31676;SDS011;18385;51.572;6.578;2024-01-27T00:24:12;10.27;;;1.70;;
31676;SDS011;18385;51.572;6.578;2024-01-27T00:26:38;5.03;;;1.98;;
31676;SDS011;18385;51.572;6.578;2024-01-27T00:29:04;8.88;;;2.65;;
31676;SDS011;18385;51.572;6.578;2024-01-27T00:31:30;9.30;;;1.88;;
31676;SDS011;18385;51.572;6.578;2024-01-27T00:33:55;12.57;;;2.47;;
31676;SDS011;18385;51.572;6.578;2024-01-27T00:36:21;9.05;;;2.08;;
31676;SDS011;18385;51.572;6.578;2024-01-27T00:38:47;10.48;;;1.80;;
31676;SDS011;18385;51.572;6.578;2024-01-27T00:41:16;12.63;;;2.25;;
31676;SDS011;18385;51.572;6.578;2024-01-27T00:43:43;12.13;;;2.30;;
31676;SDS011;18385;51.572;6.578;2024-01-27T00:46:08;12.23;;;2.72;;
31676;SDS011;18385;51.572;6.578;2024-01-27T00:48:34;7.47;;;1.88;;
31676;SDS011;18385;51.572;6.578;2024-01-27T00:50:59;13.93;;;2.33;;
31676;SDS011;18385;51.572;6.578;2024-01-27T00:53:25;10.15;;;2.83;;
31676;SDS011;18385;51.572;6.578;2024-01-27T00:55:51;16.48;;;4.20;;
31676;SDS011;18385;51.572;6.578;2024-01-27T00:58:16;11.48;;;2.63;;
31676;SDS011;18385;51.572;6.578;2024-01-27T01:00:42;25.80;;;4.15;;
31676;SDS011;18385;51.572;6.578;2024-01-27T01:03:07;10.07;;;2.65;;
31676;SDS011;18385;51.572;6.578;2024-01-27T01:05:33;14.52;;;1.85;;
31676;SDS011;18385;51.572;6.578;2024-01-27T01:07:59;7.97;;;2.30;;
31676;SDS011;18385;51.572;6.578;2024-01-27T01:10:24;13.00;;;2.75;;
31676;SDS011;18385;51.572;6.578;2024-01-27T01:12:51;11.55;;;2.17;;
31676;SDS011;18385;51.572;6.578;2024-01-27T01:15:17;10.20;;;2.60;;
31676;SDS011;18385;51.572;6.578;2024-01-27T01:17:43;14.93;;;2.67;;
31676;SDS011;18385;51.572;6.578;2024-01-27T01:20:08;13.90;;;2.63;;
31676;SDS011;18385;51.572;6.578;2024-01-27T01:22:34;11.95;;;2.65;;
31676;SDS011;18385;51.572;6.578;2024-01-27T01:25:00;12.93;;;2.72;;
31676;SDS011;18385;51.572;6.578;2024-01-27T01:27:25;11.68;;;2.60;;
31676;SDS011;18385;51.572;6.578;2024-01-27T01:29:51;17.73;;;3.00;;
31676;SDS011;18385;51.572;6.578;2024-01-27T01:32:17;15.55;;;2.50;;
31676;SDS011;18385;51.572;6.578;2024-01-27T01:34:42;8.88;;;1.98;;
31676;SDS011;18385;51.572;6.578;2024-01-27T01:37:08;18.83;;;3.28;;
31676;SDS011;18385;51.572;6.578;2024-01-27T01:39:34;11.68;;;2.40;;
31676;SDS011;18385;51.572;6.578;2024-01-27T01:41:59;13.23;;;2.40;;
31676;SDS011;18385;51.572;6.578;2024-01-27T01:44:26;9.55;;;1.98;;
31676;SDS011;18385;51.572;6.578;2024-01-27T01:46:56;16.38;;;2.75;;
31676;SDS011;18385;51.572;6.578;2024-01-27T01:49:22;12.07;;;2.70;;
31676;SDS011;18385;51.572;6.578;2024-01-27T01:51:47;12.15;;;4.45;;
31676;SDS011;18385;51.572;6.578;2024-01-27T01:54:13;10.90;;;2.50;;
31676;SDS011;18385;51.572;6.578;2024-01-27T01:56:39;11.43;;;2.25;;
31676;SDS011;18385;51.572;6.578;2024-01-27T01:59:05;16.27;;;3.22;;
31676;SDS011;18385;51.572;6.578;2024-01-27T02:01:31;10.55;;;2.47;;
31676;SDS011;18385;51.572;6.578;2024-01-27T02:03:57;11.52;;;3.33;;
31676;SDS011;18385;51.572;6.578;2024-01-27T02:06:23;14.40;;;2.72;;
31676;SDS011;18385;51.572;6.578;2024-01-27T02:08:49;14.98;;;3.20;;
31676;SDS011;18385;51.572;6.578;2024-01-27T02:11:15;16.33;;;2.25;;
31676;SDS011;18385;51.572;6.578;2024-01-27T02:13:41;9.68;;;2.28;;
31676;SDS011;18385;51.572;6.578;2024-01-27T02:16:07;8.77;;;2.10;;
31676;SDS011;18385;51.572;6.578;2024-01-27T02:18:33;15.13;;;2.95;;
31676;SDS011;18385;51.572;6.578;2024-01-27T02:20:58;10.20;;;2.42;;
31676;SDS011;18385;51.572;6.578;2024-01-27T02:23:24;21.10;;;3.92;;
31676;SDS011;18385;51.572;6.578;2024-01-27T02:25:50;9.75;;;3.03;;
31676;SDS011;18385;51.572;6.578;2024-01-27T02:28:16;13.88;;;2.50;;
31676;SDS011;18385;51.572;6.578;2024-01-27T02:30:42;13.00;;;2.97;;
31676;SDS011;18385;51.572;6.578;2024-01-27T02:33:07;13.20;;;3.03;;
31676;SDS011;18385;51.572;6.578;2024-01-27T02:35:33;11.80;;;3.13;;
31676;SDS011;18385;51.572;6.578;2024-01-27T02:37:59;16.15;;;2.97;;
31676;SDS011;18385;51.572;6.578;2024-01-27T02:40:24;12.45;;;2.85;;
31676;SDS011;18385;51.572;6.578;2024-01-27T02:42:50;12.82;;;3.38;;
31676;SDS011;18385;51.572;6.578;2024-01-27T02:45:16;12.68;;;2.92;;
31676;SDS011;18385;51.572;6.578;2024-01-27T02:47:41;12.75;;;3.63;;
31676;SDS011;18385;51.572;6.578;2024-01-27T02:50:07;12.80;;;3.20;;
31676;SDS011;18385;51.572;6.578;2024-01-27T02:52:33;18.70;;;3.03;;
31676;SDS011;18385;51.572;6.578;2024-01-27T02:54:59;16.38;;;3.05;;
31676;SDS011;18385;51.572;6.578;2024-01-27T02:57:25;12.63;;;3.10;;
31676;SDS011;18385;51.572;6.578;2024-01-27T02:59:51;10.57;;;2.92;;
31676;SDS011;18385;51.572;6.578;2024-01-27T03:02:17;11.40;;;2.85;;
31676;SDS011;18385;51.572;6.578;2024-01-27T03:04:42;15.05;;;4.45;;
31676;SDS011;18385;51.572;6.578;2024-01-27T03:07:08;12.00;;;2.78;;
31676;SDS011;18385;51.572;6.578;2024-01-27T03:09:33;18.85;;;3.67;;
31676;SDS011;18385;51.572;6.578;2024-01-27T03:11:59;16.63;;;2.83;;
31676;SDS011;18385;51.572;6.578;2024-01-27T03:14:25;10.27;;;2.85;;
31676;SDS011;18385;51.572;6.578;2024-01-27T03:16:51;11.02;;;4.15;;
31676;SDS011;18385;51.572;6.578;2024-01-27T03:19:17;11.43;;;3.20;;
31676;SDS011;18385;51.572;6.578;2024-01-27T03:21:43;13.93;;;4.20;;
31676;SDS011;18385;51.572;6.578;2024-01-27T03:24:08;15.88;;;3.63;;
31676;SDS011;18385;51.572;6.578;2024-01-27T03:26:34;12.15;;;3.47;;
31676;SDS011;18385;51.572;6.578;2024-01-27T03:28:59;11.10;;;3.35;;
31676;SDS011;18385;51.572;6.578;2024-01-27T03:31:34;18.10;;;4.30;;
31676;SDS011;18385;51.572;6.578;2024-01-27T03:34:01;18.55;;;3.13;;
31676;SDS011;18385;51.572;6.578;2024-01-27T03:36:27;11.50;;;3.10;;
31676;SDS011;18385;51.572;6.578;2024-01-27T03:38:54;14.13;;;3.85;;
31676;SDS011;18385;51.572;6.578;2024-01-27T03:41:21;18.60;;;3.50;;
31676;SDS011;18385;51.572;6.578;2024-01-27T03:43:46;14.45;;;4.78;;
31676;SDS011;18385;51.572;6.578;2024-01-27T03:46:12;14.30;;;4.05;;
31676;SDS011;18385;51.572;6.578;2024-01-27T03:48:37;10.98;;;3.22;;
31676;SDS011;18385;51.572;6.578;2024-01-27T03:51:03;13.77;;;3.38;;
31676;SDS011;18385;51.572;6.578;2024-01-27T03:53:29;18.98;;;3.60;;
31676;SDS011;18385;51.572;6.578;2024-01-27T03:55:55;15.38;;;3.78;;
31676;SDS011;18385;51.572;6.578;2024-01-27T03:58:23;12.33;;;3.67;;
31676;SDS011;18385;51.572;6.578;2024-01-27T04:00:49;16.02;;;4.65;;
31676;SDS011;18385;51.572;6.578;2024-01-27T04:03:15;19.50;;;4.53;;
31676;SDS011;18385;51.572;6.578;2024-01-27T04:05:40;21.23;;;5.70;;
31676;SDS011;18385;51.572;6.578;2024-01-27T04:08:06;19.02;;;3.80;;
31676;SDS011;18385;51.572;6.578;2024-01-27T04:10:32;15.30;;;3.38;;
31676;SDS011;18385;51.572;6.578;2024-01-27T04:12:57;18.58;;;4.55;;
31676;SDS011;18385;51.572;6.578;2024-01-27T04:15:23;13.35;;;3.25;;
31676;SDS011;18385;51.572;6.578;2024-01-27T04:17:49;15.02;;;3.78;;
31676;SDS011;18385;51.572;6.578;2024-01-27T04:20:14;14.88;;;3.92;;
31676;SDS011;18385;51.572;6.578;2024-01-27T04:22:40;15.25;;;3.65;;
31676;SDS011;18385;51.572;6.578;2024-01-27T04:25:06;13.70;;;3.72;;
31676;SDS011;18385;51.572;6.578;2024-01-27T04:27:35;18.63;;;5.53;;
31676;SDS011;18385;51.572;6.578;2024-01-27T04:30:03;15.80;;;4.05;;
31676;SDS011;18385;51.572;6.578;2024-01-27T04:32:30;15.60;;;3.63;;
31676;SDS011;18385;51.572;6.578;2024-01-27T04:34:55;16.48;;;3.92;;
31676;SDS011;18385;51.572;6.578;2024-01-27T04:37:21;15.75;;;4.55;;
31676;SDS011;18385;51.572;6.578;2024-01-27T04:39:46;12.20;;;4.47;;
31676;SDS011;18385;51.572;6.578;2024-01-27T04:42:12;12.02;;;4.03;;
31676;SDS011;18385;51.572;6.578;2024-01-27T04:44:41;16.73;;;4.63;;
31676;SDS011;18385;51.572;6.578;2024-01-27T04:47:07;12.40;;;4.10;;
31676;SDS011;18385;51.572;6.578;2024-01-27T04:49:32;9.80;;;4.25;;
31676;SDS011;18385;51.572;6.578;2024-01-27T04:51:58;12.38;;;3.70;;
31676;SDS011;18385;51.572;6.578;2024-01-27T04:54:24;18.10;;;4.57;;
31676;SDS011;18385;51.572;6.578;2024-01-27T04:56:50;13.40;;;3.65;;
31676;SDS011;18385;51.572;6.578;2024-01-27T04:59:16;16.38;;;4.72;;
31676;SDS011;18385;51.572;6.578;2024-01-27T05:01:45;16.85;;;4.45;;
31676;SDS011;18385;51.572;6.578;2024-01-27T05:04:11;16.73;;;4.18;;
31676;SDS011;18385;51.572;6.578;2024-01-27T05:06:37;19.63;;;4.60;;
31676;SDS011;18385;51.572;6.578;2024-01-27T05:09:04;19.60;;;4.63;;
31676;SDS011;18385;51.572;6.578;2024-01-27T05:11:33;14.93;;;4.50;;
31676;SDS011;18385;51.572;6.578;2024-01-27T05:13:59;23.77;;;5.30;;
31676;SDS011;18385;51.572;6.578;2024-01-27T05:16:25;13.90;;;4.60;;
31676;SDS011;18385;51.572;6.578;2024-01-27T05:18:51;16.20;;;4.18;;
31676;SDS011;18385;51.572;6.578;2024-01-27T05:21:17;16.75;;;4.40;;
31676;SDS011;18385;51.572;6.578;2024-01-27T05:23:43;17.70;;;4.45;;
31676;SDS011;18385;51.572;6.578;2024-01-27T05:26:09;13.35;;;3.65;;
31676;SDS011;18385;51.572;6.578;2024-01-27T05:28:36;7.68;;;4.00;;
31676;SDS011;18385;51.572;6.578;2024-01-27T05:31:03;12.80;;;3.50;;
31676;SDS011;18385;51.572;6.578;2024-01-27T05:33:31;9.85;;;4.03;;
31676;SDS011;18385;51.572;6.578;2024-01-27T05:35:57;14.93;;;4.38;;
31676;SDS011;18385;51.572;6.578;2024-01-27T05:38:23;15.88;;;3.83;;
31676;SDS011;18385;51.572;6.578;2024-01-27T05:40:49;14.25;;;4.28;;
31676;SDS011;18385;51.572;6.578;2024-01-27T05:43:15;12.90;;;4.38;;
31676;SDS011;18385;51.572;6.578;2024-01-27T05:45:41;15.25;;;3.80;;
31676;SDS011;18385;51.572;6.578;2024-01-27T05:48:07;13.57;;;3.42;;
31676;SDS011;18385;51.572;6.578;2024-01-27T05:50:32;15.65;;;5.40;;
31676;SDS011;18385;51.572;6.578;2024-01-27T05:52:59;13.82;;;3.83;;
31676;SDS011;18385;51.572;6.578;2024-01-27T05:55:25;13.70;;;3.70;;
31676;SDS011;18385;51.572;6.578;2024-01-27T05:57:50;20.65;;;4.22;;
31676;SDS011;18385;51.572;6.578;2024-01-27T06:00:16;20.42;;;4.43;;
31676;SDS011;18385;51.572;6.578;2024-01-27T06:02:42;13.93;;;3.75;;
31676;SDS011;18385;51.572;6.578;2024-01-27T06:05:08;10.82;;;4.05;;
31676;SDS011;18385;51.572;6.578;2024-01-27T06:07:34;13.48;;;3.97;;
31676;SDS011;18385;51.572;6.578;2024-01-27T06:10:02;15.02;;;4.18;;
31676;SDS011;18385;51.572;6.578;2024-01-27T06:12:28;17.60;;;4.07;;
31676;SDS011;18385;51.572;6.578;2024-01-27T06:14:54;10.77;;;4.10;;
31676;SDS011;18385;51.572;6.578;2024-01-27T06:17:19;15.73;;;4.00;;
31676;SDS011;18385;51.572;6.578;2024-01-27T06:19:45;15.40;;;3.67;;
31676;SDS011;18385;51.572;6.578;2024-01-27T06:22:11;15.50;;;4.45;;
31676;SDS011;18385;51.572;6.578;2024-01-27T06:24:41;16.50;;;4.35;;
31676;SDS011;18385;51.572;6.578;2024-01-27T06:27:10;21.10;;;4.57;;
31676;SDS011;18385;51.572;6.578;2024-01-27T06:29:37;13.27;;;3.90;;
31676;SDS011;18385;51.572;6.578;2024-01-27T06:32:03;16.75;;;4.10;;
31676;SDS011;18385;51.572;6.578;2024-01-27T06:34:29;20.25;;;4.78;;
31676;SDS011;18385;51.572;6.578;2024-01-27T06:36:55;19.05;;;4.40;;
31676;SDS011;18385;51.572;6.578;2024-01-27T06:39:20;14.50;;;4.00;;
31676;SDS011;18385;51.572;6.578;2024-01-27T06:41:46;11.95;;;5.00;;
31676;SDS011;18385;51.572;6.578;2024-01-27T06:44:12;17.63;;;5.10;;
31676;SDS011;18385;51.572;6.578;2024-01-27T06:46:38;18.10;;;4.20;;
31676;SDS011;18385;51.572;6.578;2024-01-27T06:49:04;19.48;;;3.67;;
31676;SDS011;18385;51.572;6.578;2024-01-27T06:51:29;12.82;;;3.92;;
31676;SDS011;18385;51.572;6.578;2024-01-27T06:53:55;12.18;;;3.67;;
31676;SDS011;18385;51.572;6.578;2024-01-27T06:56:21;12.75;;;4.70;;
31676;SDS011;18385;51.572;6.578;2024-01-27T06:58:46;16.67;;;3.97;;
31676;SDS011;18385;51.572;6.578;2024-01-27T07:01:12;12.77;;;4.00;;
31676;SDS011;18385;51.572;6.578;2024-01-27T07:03:37;15.90;;;4.60;;
31676;SDS011;18385;51.572;6.578;2024-01-27T07:06:04;12.20;;;4.80;;
31676;SDS011;18385;51.572;6.578;2024-01-27T07:08:30;11.48;;;4.03;;
31676;SDS011;18385;51.572;6.578;2024-01-27T07:10:57;12.70;;;3.80;;
31676;SDS011;18385;51.572;6.578;2024-01-27T07:13:23;11.20;;;3.75;;
31676;SDS011;18385;51.572;6.578;2024-01-27T07:15:49;14.50;;;4.45;;
31676;SDS011;18385;51.572;6.578;2024-01-27T07:18:14;11.35;;;3.75;;
31676;SDS011;18385;51.572;6.578;2024-01-27T07:20:40;19.75;;;4.70;;
31676;SDS011;18385;51.572;6.578;2024-01-27T07:23:06;13.15;;;4.03;;
31676;SDS011;18385;51.572;6.578;2024-01-27T07:25:31;10.80;;;3.80;;
31676;SDS011;18385;51.572;6.578;2024-01-27T07:27:57;14.88;;;3.95;;
31676;SDS011;18385;51.572;6.578;2024-01-27T07:30:23;22.58;;;3.78;;
31676;SDS011;18385;51.572;6.578;2024-01-27T07:32:48;14.18;;;4.40;;
31676;SDS011;18385;51.572;6.578;2024-01-27T07:35:14;9.73;;;3.25;;
31676;SDS011;18385;51.572;6.578;2024-01-27T07:37:40;13.98;;;3.72;;
31676;SDS011;18385;51.572;6.578;2024-01-27T07:40:06;14.10;;;3.47;;
31676;SDS011;18385;51.572;6.578;2024-01-27T07:42:34;10.18;;;3.30;;
31676;SDS011;18385;51.572;6.578;2024-01-27T07:44:59;13.98;;;3.90;;
31676;SDS011;18385;51.572;6.578;2024-01-27T07:47:25;16.55;;;4.45;;
31676;SDS011;18385;51.572;6.578;2024-01-27T07:49:50;14.48;;;4.32;;
31676;SDS011;18385;51.572;6.578;2024-01-27T07:52:17;20.73;;;5.38;;
31676;SDS011;18385;51.572;6.578;2024-01-27T07:54:43;65.00;;;17.83;;
31676;SDS011;18385;51.572;6.578;2024-01-27T07:57:09;87.90;;;24.33;;
31676;SDS011;18385;51.572;6.578;2024-01-27T07:59:35;69.20;;;19.27;;
31676;SDS011;18385;51.572;6.578;2024-01-27T08:02:01;36.92;;;10.18;;
31676;SDS011;18385;51.572;6.578;2024-01-27T08:04:26;25.27;;;7.53;;
31676;SDS011;18385;51.572;6.578;2024-01-27T08:06:52;20.08;;;5.70;;
31676;SDS011;18385;51.572;6.578;2024-01-27T08:09:18;17.52;;;5.57;;
31676;SDS011;18385;51.572;6.578;2024-01-27T08:11:44;16.08;;;4.93;;
31676;SDS011;18385;51.572;6.578;2024-01-27T08:14:10;26.40;;;6.53;;
31676;SDS011;18385;51.572;6.578;2024-01-27T08:16:37;25.33;;;6.55;;
31676;SDS011;18385;51.572;6.578;2024-01-27T08:19:02;23.90;;;5.60;;
31676;SDS011;18385;51.572;6.578;2024-01-27T08:21:28;22.27;;;5.95;;
31676;SDS011;18385;51.572;6.578;2024-01-27T08:23:54;16.88;;;5.47;;
31676;SDS011;18385;51.572;6.578;2024-01-27T08:26:20;24.75;;;7.43;;
31676;SDS011;18385;51.572;6.578;2024-01-27T08:28:46;22.48;;;6.30;;
31676;SDS011;18385;51.572;6.578;2024-01-27T08:31:12;19.95;;;5.50;;
31676;SDS011;18385;51.572;6.578;2024-01-27T08:33:38;22.00;;;5.30;;
31676;SDS011;18385;51.572;6.578;2024-01-27T08:36:03;16.25;;;5.10;;
31676;SDS011;18385;51.572;6.578;2024-01-27T08:38:29;19.00;;;6.57;;
31676;SDS011;18385;51.572;6.578;2024-01-27T08:40:55;18.25;;;5.13;;
31676;SDS011;18385;51.572;6.578;2024-01-27T08:43:20;22.38;;;5.82;;
31676;SDS011;18385;51.572;6.578;2024-01-27T08:45:46;18.50;;;4.85;;
31676;SDS011;18385;51.572;6.578;2024-01-27T08:48:12;21.48;;;4.80;;
31676;SDS011;18385;51.572;6.578;2024-01-27T08:50:38;21.15;;;5.05;;
31676;SDS011;18385;51.572;6.578;2024-01-27T08:53:04;15.45;;;5.80;;
31676;SDS011;18385;51.572;6.578;2024-01-27T08:55:29;17.90;;;5.05;;
31676;SDS011;18385;51.572;6.578;2024-01-27T08:57:58;24.33;;;5.13;;
31676;SDS011;18385;51.572;6.578;2024-01-27T09:00:24;14.97;;;4.90;;
31676;SDS011;18385;51.572;6.578;2024-01-27T09:02:50;17.08;;;5.65;;
31676;SDS011;18385;51.572;6.578;2024-01-27T09:05:17;20.80;;;5.10;;
31676;SDS011;18385;51.572;6.578;2024-01-27T09:07:43;15.25;;;5.18;;
31676;SDS011;18385;51.572;6.578;2024-01-27T09:10:09;18.58;;;4.22;;
31676;SDS011;18385;51.572;6.578;2024-01-27T09:12:37;14.00;;;4.20;;
31676;SDS011;18385;51.572;6.578;2024-01-27T09:15:03;23.98;;;5.40;;
31676;SDS011;18385;51.572;6.578;2024-01-27T09:17:29;23.70;;;5.72;;
31676;SDS011;18385;51.572;6.578;2024-01-27T09:19:55;18.35;;;4.75;;
31676;SDS011;18385;51.572;6.578;2024-01-27T09:22:20;16.73;;;4.85;;
31676;SDS011;18385;51.572;6.578;2024-01-27T09:24:46;20.75;;;6.00;;
31676;SDS011;18385;51.572;6.578;2024-01-27T09:27:12;23.80;;;7.68;;
31676;SDS011;18385;51.572;6.578;2024-01-27T09:29:37;11.77;;;3.80;;
31676;SDS011;18385;51.572;6.578;2024-01-27T09:32:03;17.30;;;6.10;;
31676;SDS011;18385;51.572;6.578;2024-01-27T09:34:29;30.38;;;8.60;;
31676;SDS011;18385;51.572;6.578;2024-01-27T09:36:55;42.92;;;10.55;;
31676;SDS011;18385;51.572;6.578;2024-01-27T09:39:20;32.15;;;6.30;;
31676;SDS011;18385;51.572;6.578;2024-01-27T09:41:46;25.00;;;9.13;;
31676;SDS011;18385;51.572;6.578;2024-01-27T09:44:13;27.05;;;8.85;;
31676;SDS011;18385;51.572;6.578;2024-01-27T09:46:43;21.45;;;7.55;;
31676;SDS011;18385;51.572;6.578;2024-01-27T09:49:09;28.70;;;5.60;;
31676;SDS011;18385;51.572;6.578;2024-01-27T09:51:38;21.77;;;6.22;;
31676;SDS011;18385;51.572;6.578;2024-01-27T09:54:03;20.60;;;4.93;;
31676;SDS011;18385;51.572;6.578;2024-01-27T09:56:29;19.33;;;4.60;;
31676;SDS011;18385;51.572;6.578;2024-01-27T09:58:56;15.48;;;5.28;;
31676;SDS011;18385;51.572;6.578;2024-01-27T10:01:23;14.77;;;4.03;;
31676;SDS011;18385;51.572;6.578;2024-01-27T10:06:18;21.27;;;5.53;;
31676;SDS011;18385;51.572;6.578;2024-01-27T10:08:54;24.58;;;4.38;;
31676;SDS011;18385;51.572;6.578;2024-01-27T10:11:20;13.90;;;4.53;;
31676;SDS011;18385;51.572;6.578;2024-01-27T10:13:54;18.25;;;4.05;;
31676;SDS011;18385;51.572;6.578;2024-01-27T10:16:21;19.92;;;4.57;;
31676;SDS011;18385;51.572;6.578;2024-01-27T10:18:47;23.17;;;4.97;;
31676;SDS011;18385;51.572;6.578;2024-01-27T10:21:16;15.73;;;4.07;;
31676;SDS011;18385;51.572;6.578;2024-01-27T10:23:43;26.00;;;6.47;;
31676;SDS011;18385;51.572;6.578;2024-01-27T10:26:09;16.15;;;4.63;;
31676;SDS011;18385;51.572;6.578;2024-01-27T10:28:35;15.55;;;4.95;;
31676;SDS011;18385;51.572;6.578;2024-01-27T10:31:10;18.05;;;5.55;;
31676;SDS011;18385;51.572;6.578;2024-01-27T10:33:36;21.10;;;4.75;;
31676;SDS011;18385;51.572;6.578;2024-01-27T10:36:02;15.23;;;3.97;;
31676;SDS011;18385;51.572;6.578;2024-01-27T10:38:37;14.88;;;4.22;;
31676;SDS011;18385;51.572;6.578;2024-01-27T10:41:09;11.95;;;3.10;;
31676;SDS011;18385;51.572;6.578;2024-01-27T10:43:38;20.92;;;4.43;;
31676;SDS011;18385;51.572;6.578;2024-01-27T10:46:08;16.75;;;4.07;;
31676;SDS011;18385;51.572;6.578;2024-01-27T10:48:37;11.32;;;3.60;;
31676;SDS011;18385;51.572;6.578;2024-01-27T10:51:05;20.27;;;4.55;;
31676;SDS011;18385;51.572;6.578;2024-01-27T10:53:35;17.67;;;4.60;;
31676;SDS011;18385;51.572;6.578;2024-01-27T10:56:03;14.65;;;4.70;;
31676;SDS011;18385;51.572;6.578;2024-01-27T10:58:33;15.63;;;3.83;;
31676;SDS011;18385;51.572;6.578;2024-01-27T11:01:05;10.75;;;4.30;;
31676;SDS011;18385;51.572;6.578;2024-01-27T11:03:34;19.58;;;5.20;;
31676;SDS011;18385;51.572;6.578;2024-01-27T11:06:05;10.25;;;3.15;;
31676;SDS011;18385;51.572;6.578;2024-01-27T11:08:33;14.90;;;3.53;;
31676;SDS011;18385;51.572;6.578;2024-01-27T11:10:59;13.85;;;4.32;;
31676;SDS011;18385;51.572;6.578;2024-01-27T11:13:29;16.95;;;3.95;;
31676;SDS011;18385;51.572;6.578;2024-01-27T11:15:57;21.40;;;3.95;;
31676;SDS011;18385;51.572;6.578;2024-01-27T11:18:26;14.30;;;3.67;;
31676;SDS011;18385;51.572;6.578;2024-01-27T11:20:53;14.55;;;4.85;;
31676;SDS011;18385;51.572;6.578;2024-01-27T11:23:19;14.93;;;3.63;;
31676;SDS011;18385;51.572;6.578;2024-01-27T11:25:45;13.02;;;3.45;;
31676;SDS011;18385;51.572;6.578;2024-01-27T11:28:14;16.48;;;4.47;;
31676;SDS011;18385;51.572;6.578;2024-01-27T11:30:45;16.30;;;4.07;;
31676;SDS011;18385;51.572;6.578;2024-01-27T11:33:12;19.70;;;3.65;;
31676;SDS011;18385;51.572;6.578;2024-01-27T11:35:38;16.63;;;3.22;;
31676;SDS011;18385;51.572;6.578;2024-01-27T11:38:04;13.50;;;3.75;;
31676;SDS011;18385;51.572;6.578;2024-01-27T11:40:29;12.93;;;3.50;;
31676;SDS011;18385;51.572;6.578;2024-01-27T11:43:00;12.90;;;3.92;;
31676;SDS011;18385;51.572;6.578;2024-01-27T11:45:27;14.05;;;3.10;;
31676;SDS011;18385;51.572;6.578;2024-01-27T11:47:55;14.73;;;4.32;;
31676;SDS011;18385;51.572;6.578;2024-01-27T11:50:21;10.90;;;1.92;;
31676;SDS011;18385;51.572;6.578;2024-01-27T11:52:47;9.75;;;2.45;;
31676;SDS011;18385;51.572;6.578;2024-01-27T11:55:12;8.52;;;2.20;;
31676;SDS011;18385;51.572;6.578;2024-01-27T11:57:40;12.10;;;2.58;;
31676;SDS011;18385;51.572;6.578;2024-01-27T12:00:09;19.20;;;5.00;;
31676;SDS011;18385;51.572;6.578;2024-01-27T12:02:36;14.30;;;3.30;;
31676;SDS011;18385;51.572;6.578;2024-01-27T12:05:02;12.02;;;2.97;;
31676;SDS011;18385;51.572;6.578;2024-01-27T12:07:29;12.57;;;3.13;;
31676;SDS011;18385;51.572;6.578;2024-01-27T12:09:55;15.65;;;2.78;;
31676;SDS011;18385;51.572;6.578;2024-01-27T12:12:20;16.95;;;4.00;;
31676;SDS011;18385;51.572;6.578;2024-01-27T12:14:47;9.50;;;2.92;;
31676;SDS011;18385;51.572;6.578;2024-01-27T12:17:14;13.45;;;3.00;;
31676;SDS011;18385;51.572;6.578;2024-01-27T12:19:50;14.82;;;3.45;;
31676;SDS011;18385;51.572;6.578;2024-01-27T12:22:27;16.42;;;3.05;;
31676;SDS011;18385;51.572;6.578;2024-01-27T12:24:53;12.73;;;2.58;;
31676;SDS011;18385;51.572;6.578;2024-01-27T12:27:21;9.20;;;2.08;;
31676;SDS011;18385;51.572;6.578;2024-01-27T12:32:18;20.20;;;5.07;;
31676;SDS011;18385;51.572;6.578;2024-01-27T12:34:44;15.70;;;5.10;;
31676;SDS011;18385;51.572;6.578;2024-01-27T12:37:15;20.63;;;5.15;;
31676;SDS011;18385;51.572;6.578;2024-01-27T12:39:41;10.43;;;2.70;;
31676;SDS011;18385;51.572;6.578;2024-01-27T12:42:08;19.20;;;3.05;;
31676;SDS011;18385;51.572;6.578;2024-01-27T12:44:34;10.93;;;2.30;;
31676;SDS011;18385;51.572;6.578;2024-01-27T12:47:00;11.82;;;2.53;;
31676;SDS011;18385;51.572;6.578;2024-01-27T12:49:26;9.30;;;2.60;;
31676;SDS011;18385;51.572;6.578;2024-01-27T12:51:52;11.48;;;2.42;;
31676;SDS011;18385;51.572;6.578;2024-01-27T12:54:17;12.40;;;3.70;;
31676;SDS011;18385;51.572;6.578;2024-01-27T12:56:44;20.00;;;3.30;;
31676;SDS011;18385;51.572;6.578;2024-01-27T12:59:10;16.13;;;2.47;;
31676;SDS011;18385;51.572;6.578;2024-01-27T13:01:36;9.90;;;2.05;;
31676;SDS011;18385;51.572;6.578;2024-01-27T13:04:02;10.52;;;2.40;;
31676;SDS011;18385;51.572;6.578;2024-01-27T13:06:28;11.60;;;2.20;;
31676;SDS011;18385;51.572;6.578;2024-01-27T13:08:53;13.40;;;3.17;;
31676;SDS011;18385;51.572;6.578;2024-01-27T13:11:19;15.30;;;2.50;;
31676;SDS011;18385;51.572;6.578;2024-01-27T13:13:45;14.35;;;3.03;;
31676;SDS011;18385;51.572;6.578;2024-01-27T13:16:11;13.48;;;2.35;;
31676;SDS011;18385;51.572;6.578;2024-01-27T13:18:36;8.88;;;2.45;;
31676;SDS011;18385;51.572;6.578;2024-01-27T13:21:03;14.45;;;2.35;;
31676;SDS011;18385;51.572;6.578;2024-01-27T13:23:31;13.00;;;1.85;;
31676;SDS011;18385;51.572;6.578;2024-01-27T13:25:57;18.90;;;4.13;;
31676;SDS011;18385;51.572;6.578;2024-01-27T13:28:23;13.13;;;2.63;;
31676;SDS011;18385;51.572;6.578;2024-01-27T13:30:49;16.88;;;4.97;;
31676;SDS011;18385;51.572;6.578;2024-01-27T13:33:17;9.02;;;2.13;;
31676;SDS011;18385;51.572;6.578;2024-01-27T13:35:43;9.85;;;2.88;;
31676;SDS011;18385;51.572;6.578;2024-01-27T13:38:15;11.27;;;1.83;;
31676;SDS011;18385;51.572;6.578;2024-01-27T13:40:45;7.43;;;1.92;;
31676;SDS011;18385;51.572;6.578;2024-01-27T13:43:10;9.55;;;2.83;;
31676;SDS011;18385;51.572;6.578;2024-01-27T13:45:36;9.63;;;2.63;;
31676;SDS011;18385;51.572;6.578;2024-01-27T13:48:02;7.25;;;2.00;;
31676;SDS011;18385;51.572;6.578;2024-01-27T13:50:27;13.00;;;2.72;;
31676;SDS011;18385;51.572;6.578;2024-01-27T13:52:56;14.68;;;2.63;;
31676;SDS011;18385;51.572;6.578;2024-01-27T13:55:21;9.55;;;2.28;;
31676;SDS011;18385;51.572;6.578;2024-01-27T13:57:48;15.40;;;2.38;;
31676;SDS011;18385;51.572;6.578;2024-01-27T14:00:14;14.23;;;2.78;;
31676;SDS011;18385;51.572;6.578;2024-01-27T14:02:41;8.55;;;1.52;;
31676;SDS011;18385;51.572;6.578;2024-01-27T14:05:07;7.82;;;1.58;;
31676;SDS011;18385;51.572;6.578;2024-01-27T14:07:33;10.88;;;2.15;;
31676;SDS011;18385;51.572;6.578;2024-01-27T14:09:59;12.88;;;2.00;;
31676;SDS011;18385;51.572;6.578;2024-01-27T14:12:26;8.35;;;1.63;;
31676;SDS011;18385;51.572;6.578;2024-01-27T14:14:51;7.15;;;1.95;;
31676;SDS011;18385;51.572;6.578;2024-01-27T14:17:17;12.63;;;2.17;;
31676;SDS011;18385;51.572;6.578;2024-01-27T14:19:45;8.82;;;2.40;;
31676;SDS011;18385;51.572;6.578;2024-01-27T14:22:12;6.15;;;1.60;;
31676;SDS011;18385;51.572;6.578;2024-01-27T14:24:38;6.35;;;1.35;;
31676;SDS011;18385;51.572;6.578;2024-01-27T14:27:04;7.65;;;1.73;;
31676;SDS011;18385;51.572;6.578;2024-01-27T14:29:32;6.80;;;1.63;;
31676;SDS011;18385;51.572;6.578;2024-01-27T14:32:00;9.50;;;1.85;;
31676;SDS011;18385;51.572;6.578;2024-01-27T14:34:26;8.35;;;1.33;;
31676;SDS011;18385;51.572;6.578;2024-01-27T14:36:51;9.98;;;2.42;;